createdAt,value
2022-12-14T00:01:51.920Z,100223.44
2022-12-14T00:04:20.641Z,100239.03
2022-12-14T00:06:48.149Z,100226.09
2022-12-14T00:09:16.019Z,100226.13
2022-12-14T00:11:43.319Z,100225.84
2022-12-14T00:14:10.656Z,100227.41
2022-12-14T00:16:38.154Z,100219.63
2022-12-14T00:19:05.756Z,100218.25
2022-12-14T00:21:33.969Z,100215.84
2022-12-14T00:24:01.386Z,100219.84
2022-12-14T00:26:31.449Z,100218.03
2022-12-14T00:29:01.392Z,100217.19
2022-12-14T00:31:29.154Z,100227.66
2022-12-14T00:33:56.654Z,100229.88
2022-12-14T00:36:24.075Z,100229.56
2022-12-14T00:38:51.582Z,100226.09
2022-12-14T00:41:18.955Z,100235.72
2022-12-14T00:43:49.256Z,100225.50
2022-12-14T00:46:17.734Z,100223.31
2022-12-14T00:48:45.315Z,100227.59
2022-12-14T00:51:14.852Z,100219.22
2022-12-14T00:53:44.619Z,100231.59
2022-12-14T00:56:12.373Z,100223.50
2022-12-14T00:58:41.593Z,100219.75
2022-12-14T01:01:15.171Z,100214.38
2022-12-14T01:03:43.008Z,100220.56
2022-12-14T01:06:19.341Z,100222.75
2022-12-14T01:08:47.603Z,100218.97
2022-12-14T01:11:18.878Z,100220.56
2022-12-14T01:13:49.745Z,100226.22
2022-12-14T01:16:18.175Z,100216.91
2022-12-14T01:18:45.999Z,100225.50
2022-12-14T01:21:31.684Z,100219.28
2022-12-14T01:24:01.560Z,100229.22
2022-12-14T01:26:31.011Z,100223.00
2022-12-14T01:28:59.681Z,100216.56
2022-12-14T01:31:39.062Z,100218.47
2022-12-14T01:34:08.042Z,100217.94
2022-12-14T01:36:36.646Z,100216.91
2022-12-14T01:39:09.515Z,100217.16
2022-12-14T01:41:39.810Z,100215.31
2022-12-14T01:44:10.231Z,100212.84
2022-12-14T01:46:52.467Z,100210.44
2022-12-14T01:49:26.164Z,100206.22
2022-12-14T01:52:04.116Z,100203.00
2022-12-14T01:54:35.159Z,100212.13
2022-12-14T01:57:02.629Z,100208.63
2022-12-14T01:59:38.390Z,100208.38
2022-12-14T02:02:08.601Z,100212.69
2022-12-14T02:04:42.117Z,100208.38
2022-12-14T02:07:10.664Z,100206.75
2022-12-14T02:09:41.194Z,100197.34
2022-12-14T02:12:20.575Z,100195.44
2022-12-14T02:14:48.633Z,100183.94
2022-12-14T02:17:17.899Z,100181.81
2022-12-14T02:19:46.976Z,100180.44
2022-12-14T02:22:39.050Z,100186.63
2022-12-14T02:25:33.836Z,100171.59
2022-12-14T02:28:10.885Z,100165.69
2022-12-14T02:30:40.937Z,100157.28
2022-12-14T02:33:27.403Z,100155.44
2022-12-14T02:36:09.417Z,100148.22
2022-12-14T02:38:39.751Z,100145.53
2022-12-14T02:41:38.300Z,100132.31
2022-12-14T02:44:08.880Z,100139.28
2022-12-14T02:46:50.047Z,100132.09
2022-12-14T02:49:40.993Z,100124.91
2022-12-14T02:52:20.513Z,100116.03
2022-12-14T02:54:55.429Z,100122.19
2022-12-14T02:57:33.402Z,100122.19
2022-12-14T03:00:02.994Z,100125.19
2022-12-14T03:02:35.724Z,100110.19
2022-12-14T03:05:03.263Z,100118.75
2022-12-14T03:07:41.097Z,100113.97
2022-12-14T03:10:40.902Z,100117.16
2022-12-14T03:13:36.127Z,100127.34
2022-12-14T03:16:11.703Z,100117.66
2022-12-14T03:18:57.370Z,100112.00
2022-12-14T03:21:49.372Z,100117.63
2022-12-14T03:24:24.193Z,100115.97
2022-12-14T03:27:07.301Z,100105.03
2022-12-14T03:29:40.694Z,100103.09
2022-12-14T03:32:16.587Z,100095.53
2022-12-14T03:34:55.368Z,100096.38
2022-12-14T03:37:34.519Z,100092.03
2022-12-14T03:40:01.964Z,100094.97
2022-12-14T03:42:59.883Z,100086.72
2022-12-14T03:45:37.345Z,100083.75
2022-12-14T03:48:10.915Z,100088.06
2022-12-14T03:50:41.820Z,100081.94
2022-12-14T03:53:19.583Z,100090.97
2022-12-14T03:56:03.965Z,100071.75
2022-12-14T03:58:57.021Z,100081.84
2022-12-14T04:01:46.592Z,100075.41
2022-12-14T04:04:27.510Z,100056.94
2022-12-14T04:07:01.153Z,100055.06
2022-12-14T04:09:52.776Z,100057.91
2022-12-14T04:12:51.394Z,100046.81
2022-12-14T04:15:40.465Z,100053.19
2022-12-14T04:18:32.048Z,100051.34
2022-12-14T04:21:15.845Z,100033.94
2022-12-14T04:24:08.230Z,100036.81
2022-12-14T04:26:40.543Z,100044.47
2022-12-14T04:29:33.200Z,100035.38
2022-12-14T04:32:15.901Z,100039.66
2022-12-14T04:34:50.931Z,100029.81
2022-12-14T04:37:22.829Z,100032.44
2022-12-14T04:40:25.997Z,100035.63
2022-12-14T04:43:00.487Z,100035.88
2022-12-14T04:45:35.122Z,100034.69
2022-12-14T04:48:45.444Z,100046.09
2022-12-14T04:51:40.883Z,100030.00
2022-12-14T04:54:26.488Z,100033.22
2022-12-14T04:57:03.763Z,100017.78
2022-12-14T04:59:32.171Z,100036.78
2022-12-14T05:02:19.886Z,100030.13
2022-12-14T05:05:04.530Z,100027.63
2022-12-14T05:07:37.834Z,100033.28
2022-12-14T05:10:35.461Z,100021.16
2022-12-14T05:13:19.077Z,100030.00
2022-12-14T05:15:50.195Z,100029.56
2022-12-14T05:18:18.595Z,100032.13
2022-12-14T05:20:49.449Z,100018.25
2022-12-14T05:23:17.393Z,100023.56
2022-12-14T05:25:45.074Z,100024.56
2022-12-14T05:28:16.595Z,100006.47
2022-12-14T05:30:48.754Z,100009.44
2022-12-14T05:33:19.869Z,100028.41
2022-12-14T05:35:47.320Z,100015.56
2022-12-14T05:38:14.958Z,100009.16
2022-12-14T05:40:43.308Z,99999.72
2022-12-14T05:43:13.717Z,100014.19
2022-12-14T05:45:41.261Z,100009.66
2022-12-14T05:48:08.754Z,99996.47
2022-12-14T05:50:36.174Z,99992.00
2022-12-14T05:53:03.584Z,99986.94
2022-12-14T05:55:30.910Z,99986.69
2022-12-14T05:57:58.336Z,100004.53
2022-12-14T06:00:25.746Z,99997.63
2022-12-14T06:02:55.568Z,99994.19
2022-12-14T06:05:23.110Z,99996.63
2022-12-14T06:07:50.574Z,100011.56
2022-12-14T06:10:18.049Z,100005.16
2022-12-14T06:12:45.497Z,100000.31
2022-12-14T06:15:14.060Z,100008.06
2022-12-14T06:17:45.684Z,100005.94
2022-12-14T06:20:14.041Z,100001.91
2022-12-14T06:22:47.595Z,100002.47
2022-12-14T06:25:16.049Z,99994.19
2022-12-14T06:27:43.540Z,99991.81
2022-12-14T06:30:12.852Z,99998.91
2022-12-14T06:32:40.215Z,100009.91
2022-12-14T06:35:08.679Z,99999.72
2022-12-14T06:37:36.164Z,100007.97
2022-12-14T06:40:04.163Z,100007.09
2022-12-14T06:42:31.736Z,99995.94
2022-12-14T06:44:59.324Z,100019.19
2022-12-14T06:47:28.325Z,100012.59
2022-12-14T06:49:55.675Z,100025.13
2022-12-14T06:52:26.730Z,100021.78
2022-12-14T06:54:54.989Z,100010.69
2022-12-14T06:57:22.369Z,100036.09
2022-12-14T06:59:49.821Z,100038.94
2022-12-14T07:02:17.486Z,100044.06
2022-12-14T07:04:45.021Z,100035.00
2022-12-14T07:07:12.551Z,100021.94
2022-12-14T07:09:40.052Z,100009.09
2022-12-14T07:12:07.547Z,100027.75
2022-12-14T07:14:35.107Z,100014.47
2022-12-14T07:17:02.517Z,100030.78
2022-12-14T07:19:29.987Z,100020.34
2022-12-14T07:21:57.360Z,100031.00
2022-12-14T07:24:24.763Z,100056.63
2022-12-14T07:26:56.387Z,100037.88
2022-12-14T07:29:23.751Z,100026.91
2022-12-14T07:31:51.409Z,100015.66
2022-12-14T07:34:19.031Z,100040.16
2022-12-14T07:36:50.610Z,100022.47
2022-12-14T07:39:18.238Z,100030.09
2022-12-14T07:41:47.211Z,100019.63
2022-12-14T07:44:24.780Z,100041.41
2022-12-14T07:46:53.443Z,100042.09
2022-12-14T07:49:21.669Z,100024.31
2022-12-14T07:51:49.062Z,100027.63
2022-12-14T07:54:16.492Z,100025.97
2022-12-14T07:56:44.675Z,100016.31
2022-12-14T07:59:19.284Z,100021.03
2022-12-14T08:01:47.192Z,100016.53
2022-12-14T08:04:19.733Z,100012.00
2022-12-14T08:06:48.559Z,100002.59
2022-12-14T08:09:16.759Z,100022.13
2022-12-14T08:11:45.181Z,100032.53
2022-12-14T08:14:17.155Z,100051.53
2022-12-14T08:17:02.904Z,100039.81
2022-12-14T08:19:30.363Z,100039.19
2022-12-14T08:21:57.773Z,100033.81
2022-12-14T08:24:28.090Z,100035.41
2022-12-14T08:26:55.620Z,100038.72
2022-12-14T08:29:23.006Z,100046.94
2022-12-14T08:31:50.482Z,100050.72
2022-12-14T08:34:22.826Z,100031.84
2022-12-14T08:36:53.319Z,100043.78
2022-12-14T08:39:21.266Z,100040.75
2022-12-14T08:41:48.634Z,100043.75
2022-12-14T08:44:17.504Z,100041.78
2022-12-14T08:46:44.990Z,100045.75
2022-12-14T08:49:12.558Z,100021.13
2022-12-14T08:51:40.040Z,100050.56
2022-12-14T08:54:07.530Z,100047.03
2022-12-14T08:56:35.025Z,100054.06
2022-12-14T08:59:02.345Z,100060.16
2022-12-14T09:01:34.660Z,100057.97
2022-12-14T09:04:05.354Z,100066.13
2022-12-14T09:06:35.272Z,100074.44
2022-12-14T09:09:03.816Z,100074.44
2022-12-14T09:11:31.303Z,100063.94
2022-12-14T09:13:58.730Z,100064.97
2022-12-14T09:16:29.060Z,100063.38
2022-12-14T09:18:56.602Z,100067.88
2022-12-14T09:21:24.187Z,100071.59
2022-12-14T09:23:57.378Z,100073.09
2022-12-14T09:26:27.705Z,100072.50
2022-12-14T09:28:56.819Z,100070.25
2022-12-14T09:31:26.291Z,100059.09
2022-12-14T09:33:55.070Z,100067.22
2022-12-14T09:36:27.730Z,100060.09
2022-12-14T09:38:56.664Z,100048.13
2022-12-14T09:41:36.124Z,100062.13
2022-12-14T09:44:19.252Z,100063.63
2022-12-14T09:47:17.177Z,100062.13
2022-12-14T09:50:07.217Z,100043.91
2022-12-14T09:52:37.096Z,100043.47
2022-12-14T09:55:16.605Z,100040.84
2022-12-14T09:58:01.568Z,100033.94
2022-12-14T10:00:36.424Z,100030.34
2022-12-14T10:03:34.332Z,100029.53
2022-12-14T10:06:59.462Z,100030.03
2022-12-14T10:09:35.892Z,100031.25
2022-12-14T10:12:11.836Z,100028.56
2022-12-14T10:15:07.201Z,100019.69
2022-12-14T10:18:22.355Z,100020.06
2022-12-14T10:21:14.736Z,100007.97
2022-12-14T10:24:08.520Z,100017.59
2022-12-14T10:26:42.745Z,100003.19
2022-12-14T10:29:28.832Z,99996.91
2022-12-14T10:32:05.632Z,100006.47
2022-12-14T10:34:34.872Z,99995.81
2022-12-14T10:37:14.202Z,100002.31
2022-12-14T10:40:02.571Z,100003.09
2022-12-14T10:42:33.517Z,99995.00
2022-12-14T10:45:39.083Z,99990.41
2022-12-14T10:48:25.773Z,99986.66
2022-12-14T10:51:25.710Z,99987.72
2022-12-14T10:54:18.869Z,99981.00
2022-12-14T10:56:50.637Z,99964.44
2022-12-14T10:59:18.234Z,99968.97
2022-12-14T11:01:48.164Z,99957.25
2022-12-14T11:04:46.804Z,99959.69
2022-12-14T11:07:16.415Z,99947.69
2022-12-14T11:09:44.201Z,99936.97
2022-12-14T11:12:23.102Z,99946.09
2022-12-14T11:15:00.766Z,99950.47
2022-12-14T11:17:36.469Z,99949.66
2022-12-14T11:20:27.714Z,99940.38
2022-12-14T11:23:06.981Z,99945.88
2022-12-14T11:25:47.242Z,99932.72
2022-12-14T11:28:37.202Z,99947.34
2022-12-14T11:31:15.376Z,99922.97
2022-12-14T11:33:49.979Z,99935.44
2022-12-14T11:36:33.315Z,99925.66
2022-12-14T11:39:22.281Z,99933.97
2022-12-14T11:41:59.594Z,99917.94
2022-12-14T11:44:36.155Z,99917.56
2022-12-14T11:47:08.610Z,99918.69
2022-12-14T11:49:38.995Z,99919.44
2022-12-14T11:52:15.356Z,99918.75
2022-12-14T11:54:51.946Z,99917.16
2022-12-14T11:57:29.988Z,99893.09
2022-12-14T12:00:00.672Z,99881.84
2022-12-14T12:02:48.001Z,99899.91
2022-12-14T12:05:18.905Z,99896.50
2022-12-14T12:07:49.375Z,99888.97
2022-12-14T12:10:22.099Z,99882.00
2022-12-14T12:12:54.460Z,99880.28
2022-12-14T12:15:41.247Z,99883.34
2022-12-14T12:18:31.503Z,99880.22
2022-12-14T12:21:08.432Z,99894.84
2022-12-14T12:23:43.775Z,99903.22
2022-12-14T12:26:30.506Z,99907.19
2022-12-14T12:29:15.524Z,99907.88
2022-12-14T12:31:53.647Z,99902.16
2022-12-14T12:34:29.352Z,99889.75
2022-12-14T12:37:25.860Z,99894.56
2022-12-14T12:39:55.617Z,99895.81
2022-12-14T12:42:34.493Z,99904.53
2022-12-14T12:45:14.539Z,99905.19
2022-12-14T12:47:49.993Z,99901.91
2022-12-14T12:50:21.628Z,99905.03
2022-12-14T12:53:02.760Z,99907.91
2022-12-14T12:55:35.434Z,99911.41
2022-12-14T12:58:05.074Z,99915.00
2022-12-14T13:00:37.144Z,99900.44
2022-12-14T13:03:20.453Z,99888.00
2022-12-14T13:05:54.086Z,99882.72
2022-12-14T13:08:32.020Z,99876.72
2022-12-14T13:14:14.568Z,99885.84
2022-12-14T13:16:43.086Z,99869.38
2022-12-14T13:19:51.089Z,99858.09
2022-12-14T13:22:27.894Z,99863.34
2022-12-14T13:24:59.716Z,99847.00
2022-12-14T13:27:36.917Z,99854.78
2022-12-14T13:30:12.053Z,99842.22
2022-12-14T13:33:13.367Z,99847.91
2022-12-14T13:35:46.656Z,99853.53
2022-12-14T13:38:17.226Z,99854.19
2022-12-14T13:40:44.574Z,99844.78
2022-12-14T13:43:17.597Z,99849.75
2022-12-14T13:45:49.991Z,99837.19
2022-12-14T13:48:25.531Z,99857.41
2022-12-14T13:51:01.874Z,99840.41
2022-12-14T13:53:55.364Z,99835.63
2022-12-14T13:56:32.614Z,99839.56
2022-12-14T13:59:04.947Z,99834.25
2022-12-14T14:01:48.034Z,99852.09
2022-12-14T14:04:30.014Z,99844.50
2022-12-14T14:07:23.399Z,99843.47
2022-12-14T14:09:57.552Z,99840.88
2022-12-14T14:12:43.229Z,99813.03
2022-12-14T14:15:26.644Z,99833.06
2022-12-14T14:17:55.449Z,99832.25
2022-12-14T14:20:31.813Z,99836.53
2022-12-14T14:23:14.362Z,99824.44
2022-12-14T14:25:52.981Z,99824.88
2022-12-14T14:28:27.508Z,99834.03
2022-12-14T14:30:59.655Z,99838.13
2022-12-14T14:33:59.596Z,99840.41
2022-12-14T14:36:36.173Z,99839.44
2022-12-14T14:39:24.502Z,99852.72
2022-12-14T14:41:55.191Z,99837.06
2022-12-14T14:44:51.095Z,99839.25
2022-12-14T14:47:35.800Z,99844.56
2022-12-14T14:50:18.214Z,99835.44
2022-12-14T14:52:58.632Z,99838.19
2022-12-14T14:58:25.065Z,99811.66
2022-12-14T15:01:06.226Z,99805.00
2022-12-14T15:03:52.460Z,99814.38
2022-12-14T15:06:28.872Z,99801.00
2022-12-14T15:09:27.232Z,99815.28
2022-12-14T15:12:01.265Z,99799.63
2022-12-14T15:14:35.597Z,99817.66
2022-12-14T15:17:14.905Z,99810.13
2022-12-14T15:19:50.637Z,99811.53
2022-12-14T15:22:21.567Z,99815.34
2022-12-14T15:24:54.454Z,99807.50
2022-12-14T15:27:37.171Z,99804.34
2022-12-14T15:30:11.530Z,99831.84
2022-12-14T15:32:48.019Z,99818.66
2022-12-14T15:35:18.697Z,99813.31
2022-12-14T15:37:54.743Z,99823.78
2022-12-14T15:40:27.455Z,99835.03
2022-12-14T15:42:57.307Z,99832.88
2022-12-14T15:45:34.815Z,99822.25
2022-12-14T15:48:14.269Z,99809.44
2022-12-14T15:50:46.081Z,99801.06
2022-12-14T15:53:41.071Z,99800.47
2022-12-14T15:56:27.359Z,99796.38
2022-12-14T15:58:57.667Z,99805.03
2022-12-14T16:01:32.693Z,99799.47
2022-12-14T16:04:05.175Z,99774.78
2022-12-14T16:06:40.651Z,99793.88
2022-12-14T16:09:10.931Z,99794.81
2022-12-14T16:11:49.565Z,99790.03
2022-12-14T16:14:31.348Z,99789.84
2022-12-14T16:17:02.096Z,99802.56
2022-12-14T16:19:57.429Z,99795.59
2022-12-14T16:22:25.684Z,99803.75
2022-12-14T16:25:08.408Z,99821.91
2022-12-14T16:27:40.614Z,99815.22
2022-12-14T16:30:19.209Z,99824.16
2022-12-14T16:32:50.051Z,99814.50
2022-12-14T16:35:26.385Z,99816.63
2022-12-14T16:37:58.003Z,99815.78
2022-12-14T16:40:33.612Z,99799.13
2022-12-14T16:43:02.641Z,99813.28
2022-12-14T16:45:36.371Z,99812.34
2022-12-14T16:48:18.291Z,99801.50
2022-12-14T16:51:01.771Z,99806.09
2022-12-14T16:53:51.224Z,99799.84
2022-12-14T16:56:24.232Z,99811.41
2022-12-14T16:59:06.388Z,99808.72
2022-12-14T17:01:46.882Z,99819.16
2022-12-14T17:04:20.080Z,99813.88
2022-12-14T17:06:54.036Z,99799.59
2022-12-14T17:09:28.487Z,99808.38
2022-12-14T17:12:00.108Z,99815.41
2022-12-14T17:14:27.908Z,99816.69
2022-12-14T17:17:01.136Z,99816.94
2022-12-14T17:19:35.619Z,99816.34
2022-12-14T17:22:05.360Z,99825.44
2022-12-14T17:24:36.042Z,99810.31
2022-12-14T17:27:04.371Z,99824.91
2022-12-14T17:29:33.242Z,99810.66
2022-12-14T17:32:03.557Z,99817.75
2022-12-14T17:34:31.175Z,99828.00
2022-12-14T17:36:58.649Z,99837.69
2022-12-14T17:39:28.646Z,99821.06
2022-12-14T17:41:56.076Z,99822.84
2022-12-14T17:44:25.120Z,99840.28
2022-12-14T17:46:52.581Z,99848.50
2022-12-14T17:49:34.108Z,99848.72
2022-12-14T17:52:07.350Z,99845.94
2022-12-14T17:54:37.470Z,99849.28
2022-12-14T17:57:05.614Z,99840.31
2022-12-14T17:59:33.036Z,99851.16
2022-12-14T18:02:00.575Z,99838.47
2022-12-14T18:04:28.240Z,99842.78
2022-12-14T18:06:55.612Z,99848.13
2022-12-14T18:09:23.032Z,99836.47
2022-12-14T18:12:21.586Z,99847.38
2022-12-14T18:14:38.116Z,99826.94
2022-12-14T18:17:11.033Z,99860.06
2022-12-14T18:19:39.026Z,99858.78
2022-12-14T18:22:07.610Z,99846.81
2022-12-14T18:24:35.159Z,99853.78
2022-12-14T18:27:02.505Z,99858.97
2022-12-14T18:29:29.932Z,99862.16
2022-12-14T18:31:57.486Z,99848.41
2022-12-14T18:34:24.928Z,99845.31
2022-12-14T18:36:52.527Z,99852.50
2022-12-14T18:39:19.945Z,99858.78
2022-12-14T18:41:50.187Z,99866.34
2022-12-14T18:44:17.635Z,99860.69
2022-12-14T18:46:45.089Z,99856.09
2022-12-14T18:49:16.968Z,99868.03
2022-12-14T18:51:44.508Z,99855.00
2022-12-14T18:54:11.914Z,99844.41
2022-12-14T18:56:42.043Z,99849.97
2022-12-14T18:59:09.822Z,99847.28
2022-12-14T19:01:37.323Z,99853.78
2022-12-14T19:04:05.755Z,99838.94
2022-12-14T19:06:44.093Z,99855.00
2022-12-14T19:09:14.145Z,99839.03
2022-12-14T19:11:44.651Z,99835.56
2022-12-14T19:14:12.227Z,99849.88
2022-12-14T19:16:39.769Z,99844.13
2022-12-14T19:19:07.278Z,99829.16
2022-12-14T19:21:34.625Z,99832.16
2022-12-14T19:24:02.068Z,99837.84
2022-12-14T19:26:30.688Z,99843.31
2022-12-14T19:28:58.555Z,99842.53
2022-12-14T19:31:26.552Z,99842.63
2022-12-14T19:33:54.044Z,99847.81
2022-12-14T19:36:24.858Z,99850.28
2022-12-14T19:38:52.233Z,99836.56
2022-12-14T19:41:21.342Z,99843.31
2022-12-14T19:43:49.025Z,99859.16
2022-12-14T19:46:18.035Z,99850.09
2022-12-14T19:48:45.871Z,99864.13
2022-12-14T19:51:14.295Z,99857.47
2022-12-14T19:53:43.336Z,99857.69
2022-12-14T19:56:13.942Z,99864.38
2022-12-14T19:58:41.563Z,99868.69
2022-12-14T20:01:14.058Z,99860.97
2022-12-14T20:03:41.914Z,99864.19
2022-12-14T20:06:09.519Z,99864.06
2022-12-14T20:08:37.076Z,99859.69
2022-12-14T20:11:10.048Z,99851.03
2022-12-14T20:13:38.346Z,99860.59
2022-12-14T20:16:06.214Z,99846.84
2022-12-14T20:18:33.826Z,99844.31
2022-12-14T20:21:06.773Z,99854.41
2022-12-14T20:23:35.421Z,99857.09
2022-12-14T20:26:16.143Z,99849.53
2022-12-14T20:28:46.557Z,99843.72
2022-12-14T20:31:17.178Z,99848.53
2022-12-14T20:33:45.233Z,99853.50
2022-12-14T20:36:12.749Z,99831.78
2022-12-14T20:38:40.171Z,99845.03
2022-12-14T20:41:10.435Z,99840.75
2022-12-14T20:43:40.272Z,99851.81
2022-12-14T20:46:24.937Z,99838.25
2022-12-14T20:48:52.591Z,99831.56
2022-12-14T20:51:20.545Z,99848.53
2022-12-14T20:53:49.304Z,99846.59
2022-12-14T20:56:16.787Z,99842.22
2022-12-14T20:58:50.461Z,99855.28
2022-12-14T21:01:19.192Z,99854.38
2022-12-14T21:03:48.416Z,99854.59
2022-12-14T21:06:20.159Z,99845.50
2022-12-14T21:09:10.054Z,99841.72
2022-12-14T21:12:06.476Z,99844.50
2022-12-14T21:14:37.489Z,99829.34
2022-12-14T21:17:05.293Z,99825.75
2022-12-14T21:19:35.347Z,99821.66
2022-12-14T21:22:04.940Z,99822.53
2022-12-14T21:25:01.645Z,99824.94
2022-12-14T21:27:25.663Z,99809.97
2022-12-14T21:29:53.844Z,99824.44
2022-12-14T21:32:22.285Z,99824.78
2022-12-14T21:34:50.007Z,99820.25
2022-12-14T21:37:17.902Z,99816.16
2022-12-14T21:39:52.386Z,99811.16
2022-12-14T21:42:26.542Z,99822.44
2022-12-14T21:44:55.289Z,99823.56
2022-12-14T21:47:29.089Z,99820.47
2022-12-14T21:49:57.135Z,99822.03
2022-12-14T21:52:28.922Z,99819.31
2022-12-14T21:54:58.589Z,99814.44
2022-12-14T21:57:50.518Z,99809.56
2022-12-14T22:00:19.171Z,99815.91
2022-12-14T22:02:46.700Z,99819.50
2022-12-14T22:05:14.246Z,99819.03
2022-12-14T22:07:41.943Z,99829.78
2022-12-14T22:10:09.507Z,99817.47
2022-12-14T22:12:36.857Z,99823.47
2022-12-14T22:15:04.399Z,99821.38
2022-12-14T22:17:34.719Z,99828.72
2022-12-14T22:20:02.383Z,99839.53
2022-12-14T22:22:29.778Z,99845.81
2022-12-14T22:24:57.190Z,99838.97
2022-12-14T22:27:24.442Z,99852.78
2022-12-14T22:29:51.809Z,99844.56
2022-12-14T22:32:19.318Z,99843.94
2022-12-14T22:34:46.775Z,99844.59
2022-12-14T22:37:16.764Z,99840.44
2022-12-14T22:39:44.625Z,99848.38
2022-12-14T22:42:16.214Z,99841.78
2022-12-14T22:44:43.638Z,99848.59
2022-12-14T22:47:10.997Z,99854.25
2022-12-14T22:49:38.418Z,99849.50
2022-12-14T22:52:05.752Z,99850.09
2022-12-14T22:54:33.088Z,99852.19
2022-12-14T22:57:04.147Z,99864.84
2022-12-14T22:59:39.302Z,99857.56
2022-12-14T23:02:06.844Z,99870.56
2022-12-14T23:04:36.712Z,99864.84
2022-12-14T23:07:04.312Z,99862.22
2022-12-14T23:09:50.178Z,99868.78
2022-12-14T23:12:36.030Z,99854.25
2022-12-14T23:15:22.435Z,99858.59
2022-12-14T23:18:08.425Z,99873.25
2022-12-14T23:20:57.402Z,99872.53
2022-12-14T23:23:43.243Z,99880.72
2022-12-14T23:26:29.267Z,99884.44
2022-12-14T23:29:14.951Z,99888.91
2022-12-14T23:32:00.757Z,99887.03
2022-12-14T23:34:47.883Z,99890.41
2022-12-14T23:37:34.373Z,99890.41
2022-12-14T23:40:20.534Z,99885.25
2022-12-14T23:43:06.648Z,99897.09
2022-12-14T23:45:52.707Z,99886.81
2022-12-14T23:48:38.572Z,99889.97
2022-12-14T23:51:25.062Z,99895.84
2022-12-14T23:54:10.993Z,99892.59
2022-12-14T23:56:57.046Z,99893.00
2022-12-14T23:59:43.171Z,99901.03
